createdAt,value
2023-04-04T00:00:39.169Z,2.55
2023-04-04T00:03:07.310Z,2.25
2023-04-04T00:05:36.113Z,1.75
2023-04-04T00:08:04.270Z,2.05
2023-04-04T00:10:32.015Z,2.03
2023-04-04T00:13:01.105Z,2.13
2023-04-04T00:15:28.655Z,2.05
2023-04-04T00:17:57.194Z,1.90
2023-04-04T00:20:24.983Z,2.17
2023-04-04T00:22:52.570Z,1.88
2023-04-04T00:25:20.254Z,2.33
2023-04-04T00:27:48.876Z,2.15
2023-04-04T00:30:16.640Z,1.85
2023-04-04T00:32:44.271Z,2.10
2023-04-04T00:35:11.840Z,1.67
2023-04-04T00:37:39.397Z,1.92
2023-04-04T00:40:08.509Z,2.10
2023-04-04T00:42:36.366Z,1.90
2023-04-04T00:45:04.010Z,2.03
2023-04-04T00:47:31.936Z,2.05
2023-04-04T00:49:59.514Z,2.05
2023-04-04T00:52:27.386Z,2.05
2023-04-04T00:54:58.157Z,1.90
2023-04-04T00:57:25.973Z,2.33
2023-04-04T00:59:53.597Z,1.92
2023-04-04T01:02:21.441Z,1.88
2023-04-04T01:04:49.017Z,1.70
2023-04-04T01:07:16.679Z,2.35
2023-04-04T01:09:44.839Z,1.80
2023-04-04T01:12:12.671Z,2.00
2023-04-04T01:14:40.504Z,2.15
2023-04-04T01:17:08.687Z,1.73
2023-04-04T01:19:38.771Z,2.10
2023-04-04T01:22:13.135Z,2.10
2023-04-04T01:24:43.332Z,2.10
2023-04-04T01:27:10.949Z,2.00
2023-04-04T01:29:44.541Z,1.80
2023-04-04T01:32:14.494Z,1.80
2023-04-04T01:34:52.496Z,2.10
2023-04-04T01:37:23.926Z,1.90
2023-04-04T01:39:57.195Z,2.00
2023-04-04T01:42:25.696Z,1.58
2023-04-04T01:44:57.651Z,1.70
2023-04-04T01:47:38.297Z,2.35
2023-04-04T01:50:06.246Z,2.10
2023-04-04T01:52:34.748Z,2.20
2023-04-04T01:55:02.564Z,2.17
2023-04-04T01:57:32.018Z,1.90
2023-04-04T01:59:59.644Z,2.15
2023-04-04T02:02:27.436Z,1.90
2023-04-04T02:04:55.477Z,2.15
2023-04-04T02:07:23.166Z,2.30
2023-04-04T02:09:50.852Z,2.28
2023-04-04T02:12:18.503Z,1.83
2023-04-04T02:14:46.169Z,2.20
2023-04-04T02:17:14.154Z,2.15
2023-04-04T02:19:41.757Z,2.08
2023-04-04T02:22:09.302Z,1.95
2023-04-04T02:24:36.957Z,1.95
2023-04-04T02:27:04.662Z,1.80
2023-04-04T02:29:33.725Z,1.90
2023-04-04T02:32:01.265Z,2.08
2023-04-04T02:34:29.137Z,1.88
2023-04-04T02:36:57.376Z,2.35
2023-04-04T02:39:25.871Z,2.00
2023-04-04T02:41:53.434Z,2.10
2023-04-04T02:44:22.159Z,2.05
2023-04-04T02:46:51.497Z,2.00
2023-04-04T02:49:20.058Z,2.00
2023-04-04T02:51:49.737Z,2.03
2023-04-04T02:54:17.383Z,2.10
2023-04-04T02:56:47.115Z,2.10
2023-04-04T02:59:14.973Z,2.53
2023-04-04T03:01:42.797Z,2.25
2023-04-04T03:04:10.979Z,2.35
2023-04-04T03:06:40.493Z,2.10
2023-04-04T03:09:08.294Z,1.95
2023-04-04T03:11:36.062Z,2.40
2023-04-04T03:14:03.798Z,2.05
2023-04-04T03:16:35.847Z,2.47
2023-04-04T03:19:03.598Z,2.13
2023-04-04T03:21:31.175Z,2.22
2023-04-04T03:23:59.328Z,2.53
2023-04-04T03:26:28.325Z,2.15
2023-04-04T03:28:56.501Z,2.10
2023-04-04T03:31:25.688Z,2.20
2023-04-04T03:33:53.449Z,2.00
2023-04-04T03:36:22.995Z,2.70
2023-04-04T03:38:51.483Z,2.03
2023-04-04T03:41:19.192Z,2.17
2023-04-04T03:43:48.172Z,1.90
2023-04-04T03:46:15.840Z,2.05
2023-04-04T03:48:45.577Z,2.25
2023-04-04T03:51:13.573Z,2.25
2023-04-04T03:53:41.269Z,2.20
2023-04-04T03:56:08.890Z,1.92
2023-04-04T03:58:37.355Z,2.10
2023-04-04T04:01:04.964Z,2.40
2023-04-04T04:03:33.110Z,2.28
2023-04-04T04:06:01.328Z,2.30
2023-04-04T04:08:28.887Z,2.10
2023-04-04T04:10:56.486Z,2.55
2023-04-04T04:13:24.120Z,2.20
2023-04-04T04:15:52.631Z,2.20
2023-04-04T04:18:22.880Z,2.50
2023-04-04T04:20:57.246Z,2.30
2023-04-04T04:23:24.888Z,2.22
2023-04-04T04:25:52.835Z,2.20
2023-04-04T04:28:33.833Z,2.33
2023-04-04T04:31:07.280Z,2.63
2023-04-04T04:33:39.840Z,2.42
2023-04-04T04:36:08.300Z,2.30
2023-04-04T04:38:50.673Z,2.35
2023-04-04T04:41:18.232Z,2.22
2023-04-04T04:46:17.638Z,2.40
2023-04-04T04:48:45.473Z,2.30
2023-04-04T04:51:15.171Z,2.55
2023-04-04T04:53:47.999Z,2.70
2023-04-04T04:56:15.826Z,2.47
2023-04-04T04:58:47.561Z,2.63
2023-04-04T05:01:21.630Z,2.17
2023-04-04T05:03:52.007Z,2.55
2023-04-04T05:06:27.158Z,2.25
2023-04-04T05:08:55.808Z,2.97
2023-04-04T05:11:30.933Z,2.58
2023-04-04T05:13:58.982Z,2.67
2023-04-04T05:16:29.151Z,2.60
2023-04-04T05:18:59.078Z,3.10
2023-04-04T05:21:26.819Z,2.50
2023-04-04T05:23:58.468Z,2.50
2023-04-04T05:26:26.343Z,2.92
2023-04-04T05:28:56.508Z,2.50
2023-04-04T05:31:26.472Z,2.70
2023-04-04T05:33:56.220Z,2.30
2023-04-04T05:36:30.985Z,3.13
2023-04-04T05:39:07.073Z,2.05
2023-04-04T05:41:38.932Z,2.80
2023-04-04T05:44:14.646Z,2.53
2023-04-04T05:46:43.216Z,2.70
2023-04-04T05:49:11.255Z,2.22
2023-04-04T05:51:43.552Z,2.50
2023-04-04T05:54:13.699Z,2.70
2023-04-04T05:56:42.790Z,2.50
2023-04-04T05:59:39.789Z,2.92
2023-04-04T06:02:10.593Z,2.78
2023-04-04T06:04:42.147Z,2.65
2023-04-04T06:07:11.818Z,2.90
2023-04-04T06:09:40.621Z,2.65
2023-04-04T06:12:11.534Z,2.85
2023-04-04T06:17:08.765Z,2.75
2023-04-04T06:19:36.441Z,2.88
2023-04-04T06:22:04.219Z,2.95
2023-04-04T06:24:36.325Z,2.88
2023-04-04T06:27:05.217Z,2.45
2023-04-04T06:29:34.142Z,2.90
2023-04-04T06:32:02.503Z,2.25
2023-04-04T06:34:37.136Z,2.70
2023-04-04T06:37:05.797Z,2.50
2023-04-04T06:39:39.658Z,2.83
2023-04-04T06:42:12.606Z,2.45
2023-04-04T06:44:47.017Z,2.70
2023-04-04T06:47:14.967Z,2.47
2023-04-04T06:49:42.620Z,2.97
2023-04-04T06:52:10.180Z,2.28
2023-04-04T06:54:37.882Z,2.35
2023-04-04T06:57:05.474Z,3.15
2023-04-04T06:59:33.184Z,2.60
2023-04-04T07:02:00.950Z,2.88
2023-04-04T07:04:28.574Z,2.92
2023-04-04T07:06:56.123Z,2.58
2023-04-04T07:09:29.227Z,2.95
2023-04-04T07:11:57.405Z,2.63
2023-04-04T07:14:25.672Z,3.00
2023-04-04T07:16:53.874Z,2.60
2023-04-04T07:19:24.398Z,2.83
2023-04-04T07:21:52.024Z,3.22
2023-04-04T07:24:19.538Z,2.50
2023-04-04T07:26:51.425Z,2.92
2023-04-04T07:29:19.009Z,2.92
2023-04-04T07:31:46.621Z,3.20
2023-04-04T07:34:14.415Z,2.72
2023-04-04T07:36:42.158Z,2.80
2023-04-04T07:39:09.745Z,2.75
2023-04-04T07:41:37.371Z,2.75
2023-04-04T07:44:05.048Z,2.90
2023-04-04T07:46:32.808Z,2.78
2023-04-04T07:49:01.156Z,3.30
2023-04-04T07:51:29.360Z,2.53
2023-04-04T07:53:57.437Z,2.53
2023-04-04T07:56:24.961Z,2.83
2023-04-04T07:58:52.744Z,3.08
2023-04-04T08:01:20.797Z,3.38
2023-04-04T08:03:50.119Z,3.10
2023-04-04T08:06:17.860Z,2.55
2023-04-04T08:08:47.076Z,3.20
2023-04-04T08:11:14.617Z,2.90
2023-04-04T08:13:42.630Z,2.95
2023-04-04T08:16:10.351Z,2.80
2023-04-04T08:18:38.622Z,2.72
2023-04-04T08:21:07.281Z,2.85
2023-04-04T08:23:35.221Z,2.78
2023-04-04T08:26:03.479Z,2.55
2023-04-04T08:28:31.183Z,2.60
2023-04-04T08:30:58.923Z,2.70
2023-04-04T08:33:37.278Z,2.65
2023-04-04T08:36:05.500Z,2.42
2023-04-04T08:38:33.370Z,2.47
2023-04-04T08:41:01.492Z,2.50
2023-04-04T08:43:29.355Z,2.30
2023-04-04T08:45:57.451Z,3.05
2023-04-04T08:48:27.042Z,2.88
2023-04-04T08:50:57.896Z,2.65
2023-04-04T08:53:25.583Z,2.60
2023-04-04T08:55:54.908Z,2.40
2023-04-04T08:58:22.488Z,2.60
2023-04-04T09:00:53.001Z,2.75
2023-04-04T09:03:27.443Z,2.53
2023-04-04T09:05:56.044Z,2.30
2023-04-04T09:08:25.258Z,2.70
2023-04-04T09:10:54.018Z,2.42
2023-04-04T09:13:22.730Z,2.35
2023-04-04T09:15:57.518Z,2.47
2023-04-04T09:18:25.059Z,2.45
2023-04-04T09:20:52.985Z,2.80
2023-04-04T09:23:21.297Z,2.60
2023-04-04T09:28:21.524Z,2.28
2023-04-04T09:30:49.735Z,2.70
2023-04-04T09:33:17.791Z,2.50
2023-04-04T09:35:46.930Z,2.40
2023-04-04T09:38:15.956Z,2.78
2023-04-04T09:40:43.912Z,2.45
2023-04-04T09:43:12.592Z,2.42
2023-04-04T09:45:41.925Z,2.63
2023-04-04T09:48:10.724Z,2.65
2023-04-04T09:50:46.121Z,2.20
2023-04-04T09:53:19.978Z,2.78
2023-04-04T09:55:51.630Z,2.65
2023-04-04T09:58:21.286Z,2.55
2023-04-04T10:00:49.334Z,2.60
2023-04-04T10:03:17.764Z,2.75
2023-04-04T10:05:50.006Z,2.58
2023-04-04T10:08:18.586Z,2.30
2023-04-04T10:10:55.757Z,2.50
2023-04-04T10:13:31.682Z,2.55
2023-04-04T10:16:00.554Z,2.53
2023-04-04T10:18:32.672Z,2.35
2023-04-04T10:21:14.513Z,2.60
2023-04-04T10:23:43.747Z,2.53
2023-04-04T10:26:12.538Z,2.60
2023-04-04T10:28:40.235Z,2.90
2023-04-04T10:31:20.021Z,2.72
2023-04-04T10:33:59.612Z,2.53
2023-04-04T10:36:31.412Z,2.50
2023-04-04T10:39:03.161Z,2.53
2023-04-04T10:44:01.082Z,2.60
2023-04-04T10:46:31.706Z,2.50
2023-04-04T10:49:01.129Z,2.63
2023-04-04T10:51:32.645Z,2.47
2023-04-04T10:54:01.684Z,2.30
2023-04-04T10:56:29.772Z,2.70
2023-04-04T10:59:10.781Z,2.28
2023-04-04T11:01:48.636Z,2.40
2023-04-04T11:04:19.683Z,2.10
2023-04-04T11:07:07.068Z,2.30
2023-04-04T11:09:51.189Z,2.50
2023-04-04T11:12:34.198Z,2.15
2023-04-04T11:15:04.819Z,2.67
2023-04-04T11:17:42.827Z,2.30
2023-04-04T11:20:11.700Z,2.60
2023-04-04T11:22:42.703Z,2.35
2023-04-04T11:25:25.611Z,2.58
2023-04-04T11:27:58.947Z,2.60
2023-04-04T11:30:28.277Z,2.45
2023-04-04T11:33:07.064Z,2.50
2023-04-04T11:35:39.919Z,2.65
2023-04-04T11:40:39.879Z,2.60
2023-04-04T11:43:13.739Z,2.38
2023-04-04T11:45:45.276Z,2.25
2023-04-04T11:48:15.777Z,2.30
2023-04-04T11:50:43.469Z,2.38
2023-04-04T11:53:11.753Z,2.50
2023-04-04T11:55:40.858Z,2.28
2023-04-04T11:58:13.156Z,2.58
2023-04-04T12:00:41.391Z,2.45
2023-04-04T12:03:11.469Z,2.00
2023-04-04T12:05:41.055Z,2.50
2023-04-04T12:08:09.662Z,2.42
2023-04-04T12:10:38.137Z,2.20
2023-04-04T12:13:09.350Z,2.30
2023-04-04T12:15:37.851Z,2.33
2023-04-04T12:18:09.300Z,2.10
2023-04-04T12:20:41.441Z,2.67
2023-04-04T12:23:09.647Z,2.35
2023-04-04T12:25:39.982Z,2.42
2023-04-04T12:28:08.432Z,2.70
2023-04-04T12:30:36.348Z,2.47
2023-04-04T12:33:04.103Z,2.80
2023-04-04T12:35:31.952Z,2.40
2023-04-04T12:38:00.787Z,2.80
2023-04-04T12:40:38.461Z,2.83
2023-04-04T12:43:06.894Z,2.60
2023-04-04T12:45:38.036Z,2.47
2023-04-04T12:48:10.411Z,2.60
2023-04-04T12:50:59.521Z,2.47
2023-04-04T12:53:29.725Z,2.15
2023-04-04T12:56:02.146Z,2.35
2023-04-04T12:58:30.045Z,2.45
2023-04-04T13:01:00.459Z,2.60
2023-04-04T13:03:28.653Z,2.47
2023-04-04T13:05:56.296Z,2.53
2023-04-04T13:08:24.238Z,2.45
2023-04-04T13:10:58.166Z,2.55
2023-04-04T13:13:31.724Z,2.50
2023-04-04T13:15:59.607Z,2.58
2023-04-04T13:18:32.303Z,2.35
2023-04-04T13:20:59.916Z,2.33
2023-04-04T13:23:27.581Z,2.70
2023-04-04T13:25:55.151Z,2.30
2023-04-04T13:28:22.686Z,2.65
2023-04-04T13:30:50.731Z,2.60
2023-04-04T13:33:22.313Z,2.20
2023-04-04T13:38:17.838Z,2.40
2023-04-04T13:40:45.786Z,2.55
2023-04-04T13:43:15.043Z,2.60
2023-04-04T13:45:43.294Z,2.40
2023-04-04T13:48:11.661Z,2.30
2023-04-04T13:50:43.911Z,2.50
2023-04-04T13:53:11.747Z,2.58
2023-04-04T13:55:44.021Z,2.63
2023-04-04T13:58:20.547Z,2.50
2023-04-04T14:00:49.013Z,2.58
2023-04-04T14:03:16.861Z,2.53
2023-04-04T14:05:44.712Z,2.70
2023-04-04T14:08:12.329Z,2.55
2023-04-04T14:10:40.158Z,2.65
2023-04-04T14:13:07.750Z,2.30
2023-04-04T14:15:35.352Z,2.75
2023-04-04T14:18:03.158Z,2.30
2023-04-04T14:20:31.923Z,2.33
2023-04-04T14:23:01.400Z,2.60
2023-04-04T14:25:28.905Z,2.47
2023-04-04T14:27:56.486Z,2.45
2023-04-04T14:30:24.048Z,2.75
2023-04-04T14:32:51.955Z,2.50
2023-04-04T14:35:19.646Z,2.70
2023-04-04T14:37:47.851Z,2.72
2023-04-04T14:40:15.378Z,2.50
2023-04-04T14:42:43.039Z,2.22
2023-04-04T14:45:12.201Z,2.72
2023-04-04T14:47:41.351Z,2.22
2023-04-04T14:50:09.171Z,2.38
2023-04-04T14:52:36.916Z,2.45
2023-04-04T14:55:05.028Z,2.58
2023-04-04T14:57:39.223Z,2.58
2023-04-04T15:00:11.366Z,2.35
2023-04-04T15:02:39.017Z,2.33
2023-04-04T15:05:07.401Z,2.13
2023-04-04T15:07:34.979Z,2.80
2023-04-04T15:10:02.603Z,2.55
2023-04-04T15:12:30.193Z,2.72
2023-04-04T15:14:57.846Z,2.83
2023-04-04T15:17:26.015Z,2.60
2023-04-04T15:19:53.634Z,2.47
2023-04-04T15:22:21.175Z,2.42
2023-04-04T15:24:48.884Z,2.70
2023-04-04T15:27:16.599Z,2.88
2023-04-04T15:29:44.760Z,2.80
2023-04-04T15:32:12.427Z,2.50
2023-04-04T15:34:40.867Z,2.72
2023-04-04T15:37:09.579Z,2.30
2023-04-04T15:39:42.855Z,2.50
2023-04-04T15:42:19.705Z,2.75
2023-04-04T15:44:47.567Z,2.72
2023-04-04T15:47:16.878Z,2.40
2023-04-04T15:49:44.619Z,2.42
2023-04-04T15:52:12.402Z,2.70
2023-04-04T15:54:39.954Z,2.58
2023-04-04T15:57:07.499Z,2.30
2023-04-04T15:59:35.052Z,2.42
2023-04-04T16:02:05.846Z,2.80
2023-04-04T16:04:33.836Z,2.08
2023-04-04T16:07:01.521Z,2.70
2023-04-04T16:09:29.059Z,2.63
2023-04-04T16:11:57.126Z,2.50
2023-04-04T16:14:25.148Z,2.60
2023-04-04T16:16:52.816Z,2.80
2023-04-04T16:19:20.492Z,2.50
2023-04-04T16:21:49.219Z,2.40
2023-04-04T16:24:16.825Z,2.67
2023-04-04T16:26:47.370Z,2.60
2023-04-04T16:29:15.447Z,2.33
2023-04-04T16:31:43.144Z,2.42
2023-04-04T16:34:10.842Z,2.50
2023-04-04T16:36:38.524Z,2.65
2023-04-04T16:39:06.808Z,2.70
2023-04-04T16:41:34.670Z,2.60
2023-04-04T16:44:02.401Z,2.70
2023-04-04T16:46:30.130Z,2.55
2023-04-04T16:48:57.767Z,2.72
2023-04-04T16:51:25.886Z,2.40
2023-04-04T16:53:53.727Z,2.50
2023-04-04T16:56:21.499Z,3.08
2023-04-04T16:58:49.104Z,2.58
2023-04-04T17:01:20.422Z,2.35
2023-04-04T17:03:48.060Z,2.28
2023-04-04T17:06:15.999Z,2.70
2023-04-04T17:08:46.369Z,2.58
2023-04-04T17:11:14.083Z,2.90
2023-04-04T17:13:42.169Z,2.60
2023-04-04T17:16:10.111Z,3.00
2023-04-04T17:18:37.790Z,3.28
2023-04-04T17:21:05.737Z,2.63
2023-04-04T17:23:33.691Z,2.70
2023-04-04T17:26:01.497Z,2.70
2023-04-04T17:28:29.059Z,2.55
2023-04-04T17:30:57.380Z,2.85
2023-04-04T17:33:26.851Z,3.08
2023-04-04T17:35:54.800Z,2.85
2023-04-04T17:38:22.459Z,2.90
2023-04-04T17:40:50.132Z,2.58
2023-04-04T17:43:17.715Z,3.00
2023-04-04T17:45:45.412Z,2.53
2023-04-04T17:48:13.387Z,2.30
2023-04-04T17:50:42.889Z,2.50
2023-04-04T17:53:10.882Z,2.53
2023-04-04T17:55:40.382Z,3.05
2023-04-04T17:58:08.149Z,2.97
2023-04-04T18:00:35.890Z,2.65
2023-04-04T18:03:04.185Z,2.70
2023-04-04T18:05:32.916Z,2.85
2023-04-04T18:08:04.555Z,3.00
2023-04-04T18:10:32.683Z,2.95
2023-04-04T18:13:01.184Z,3.00
2023-04-04T18:15:29.426Z,2.88
2023-04-04T18:17:57.072Z,3.30
2023-04-04T18:20:34.548Z,2.83
2023-04-04T18:23:06.654Z,2.92
2023-04-04T18:25:34.368Z,2.67
2023-04-04T18:28:02.209Z,3.10
2023-04-04T18:30:29.912Z,3.45
2023-04-04T18:32:57.657Z,2.92
2023-04-04T18:35:25.445Z,3.00
2023-04-04T18:37:53.001Z,3.20
2023-04-04T18:40:21.638Z,2.83
2023-04-04T18:42:49.339Z,3.00
2023-04-04T18:45:18.255Z,3.25
2023-04-04T18:47:46.419Z,3.10
2023-04-04T18:50:15.732Z,3.22
2023-04-04T18:52:43.293Z,2.90
2023-04-04T18:55:11.440Z,3.13
2023-04-04T18:57:39.032Z,3.15
2023-04-04T19:00:08.084Z,2.97
2023-04-04T19:02:37.236Z,3.22
2023-04-04T19:05:05.348Z,3.53
2023-04-04T19:07:33.871Z,3.30
2023-04-04T19:10:04.562Z,2.92
2023-04-04T19:12:32.603Z,2.95
2023-04-04T19:15:01.242Z,2.97
2023-04-04T19:17:29.531Z,3.05
2023-04-04T19:19:57.511Z,3.13
2023-04-04T19:22:25.125Z,2.75
2023-04-04T19:24:52.760Z,3.13
2023-04-04T19:27:20.541Z,3.40
2023-04-04T19:29:48.215Z,3.15
2023-04-04T19:32:19.470Z,3.22
2023-04-04T19:34:47.437Z,2.97
2023-04-04T19:37:17.471Z,3.33
2023-04-04T19:39:45.357Z,3.47
2023-04-04T19:42:12.990Z,3.33
2023-04-04T19:44:41.085Z,3.33
2023-04-04T19:47:10.384Z,3.20
2023-04-04T19:49:39.520Z,3.08
2023-04-04T19:52:08.706Z,3.40
2023-04-04T19:54:42.670Z,3.35
2023-04-04T19:57:19.060Z,3.05
2023-04-04T20:00:19.170Z,3.10
2023-04-04T20:02:48.629Z,4.10
2023-04-04T20:05:34.793Z,3.53
2023-04-04T20:08:02.392Z,3.15
2023-04-04T20:10:37.312Z,3.33
2023-04-04T20:13:06.227Z,3.60
2023-04-04T20:15:53.789Z,3.78
2023-04-04T20:18:22.249Z,3.53
2023-04-04T20:21:00.396Z,3.72
2023-04-04T20:23:28.812Z,3.70
2023-04-04T20:26:00.330Z,3.55
2023-04-04T20:28:29.049Z,3.78
2023-04-04T20:30:58.874Z,4.00
2023-04-04T20:33:33.463Z,3.88
2023-04-04T20:36:08.509Z,3.47
2023-04-04T20:38:36.805Z,3.50
2023-04-04T20:41:08.680Z,3.70
2023-04-04T20:43:36.715Z,3.78
2023-04-04T20:46:04.378Z,4.28
2023-04-04T20:48:39.678Z,4.15
2023-04-04T20:51:24.402Z,4.32
2023-04-04T20:53:52.929Z,3.45
2023-04-04T20:56:29.696Z,3.97
2023-04-04T20:58:57.352Z,4.00
2023-04-04T21:01:24.891Z,3.72
2023-04-04T21:03:52.569Z,4.43
2023-04-04T21:06:21.148Z,3.90
2023-04-04T21:08:49.980Z,4.15
2023-04-04T21:11:23.309Z,4.03
2023-04-04T21:13:50.949Z,4.25
2023-04-04T21:16:21.458Z,4.72
2023-04-04T21:18:49.088Z,4.18
2023-04-04T21:21:20.280Z,4.10
2023-04-04T21:23:47.878Z,4.45
2023-04-04T21:26:34.364Z,3.90
2023-04-04T21:29:03.375Z,4.15
2023-04-04T21:31:37.015Z,4.43
2023-04-04T21:34:09.359Z,4.63
2023-04-04T21:36:37.188Z,4.03
2023-04-04T21:39:10.888Z,5.07
2023-04-04T21:41:38.613Z,4.32
2023-04-04T21:44:07.677Z,3.85
2023-04-04T21:46:36.984Z,4.78
2023-04-04T21:49:05.232Z,4.72
2023-04-04T21:51:32.864Z,4.78
2023-04-04T21:54:01.149Z,4.32
2023-04-04T21:56:31.559Z,3.95
2023-04-04T21:59:00.016Z,3.97
2023-04-04T22:01:27.898Z,3.95
2023-04-04T22:03:55.571Z,4.03
2023-04-04T22:06:27.253Z,4.07
2023-04-04T22:08:55.994Z,4.40
2023-04-04T22:11:25.713Z,3.97
2023-04-04T22:14:02.865Z,4.28
2023-04-04T22:16:31.129Z,4.10
2023-04-04T22:19:00.981Z,4.60
2023-04-04T22:21:28.992Z,4.32
2023-04-04T22:24:01.700Z,4.88
2023-04-04T22:26:31.938Z,4.75
2023-04-04T22:29:00.297Z,4.50
2023-04-04T22:31:28.810Z,5.22
2023-04-04T22:33:56.650Z,5.22
2023-04-04T22:36:24.969Z,5.07
2023-04-04T22:38:59.200Z,4.57
2023-04-04T22:41:30.337Z,4.68
2023-04-04T22:43:58.383Z,4.93
2023-04-04T22:46:28.847Z,4.90
2023-04-04T22:49:05.972Z,4.63
2023-04-04T22:51:44.341Z,4.80
2023-04-04T22:54:16.071Z,4.90
2023-04-04T22:56:44.113Z,4.80
2023-04-04T22:59:11.795Z,5.45
2023-04-04T23:01:40.010Z,5.53
2023-04-04T23:04:07.966Z,5.15
2023-04-04T23:06:36.330Z,5.05
2023-04-04T23:09:04.098Z,5.90
2023-04-04T23:11:31.939Z,4.85
2023-04-04T23:14:00.464Z,5.30
2023-04-04T23:16:28.866Z,5.30
2023-04-04T23:18:57.132Z,5.25
2023-04-04T23:21:24.896Z,5.18
2023-04-04T23:23:52.470Z,5.35
2023-04-04T23:26:20.084Z,5.43
2023-04-04T23:28:47.803Z,5.40
2023-04-04T23:31:16.798Z,5.60
2023-04-04T23:33:44.503Z,5.38
2023-04-04T23:36:12.158Z,5.28
2023-04-04T23:38:39.750Z,4.88
2023-04-04T23:41:07.504Z,5.18
2023-04-04T23:43:35.954Z,5.40
2023-04-04T23:46:03.831Z,5.60
2023-04-04T23:48:31.737Z,6.00
2023-04-04T23:51:01.662Z,6.07
2023-04-04T23:53:29.545Z,5.20
2023-04-04T23:55:57.181Z,5.30
2023-04-04T23:58:24.873Z,5.63
